KRNC/RNC METAR and TAF weather

Enter ICAO airport designator
Station Type Date Time Source
KRNC METAR 2019/12/07 04:55 UTC NOAA

KRNC 070455Z AUTO 03005KT 10SM FEW036 BKN060 08/04 A3021 RMK A01


Station Type Date Time Source
KRNC Decoded METAR 2019/12/07 04:55 UTC NOAA

Station name not available
Dec 06, 2019 - 11:55 PM EST / 2019.12.07 0455 UTC
Wind: from the NNE (030 degrees) at 6 MPH (5 KT):0
Visibility: 10 mile(s):0
Sky conditions: mostly cloudy
Temperature: 46 F (8 C)
Dew Point: 39 F (4 C)
Relative Humidity: 75%
Pressure (altimeter): 30.21 in. Hg (1023 hPa)
ob: KRNC 070455Z AUTO 03005KT 10SM FEW036 BKN060 08/04 A3021 RMK A01
cycle: 5

Station Type Date Time Source
KRNC TAF 2009/08/31 19:45 UTC NOAA

METAR KRNC 311945Z AUTO 35008KT 10SM CLR 25/12 A3011
RMK AO1 T02500116 $

Example: see airport list